Time;durP1;ratioP1;P1;durP2;ratioP2;P2;SDS_P1;SDS_P2;PMS_P1;PMS_P2;Temp;Humidity;BMP_temperature;BMP_pressure;BME280_temperature;BME280_humidity;BME280_pressure;Samples;Min_cycle;Max_cycle;Signal;HPM_P1;HPM_P2
2021/09/16 00:00:17;;;;;;;17.40;15.55;;;19.00;99.90;;;;;;2097515;28;20020;-69
2021/09/16 00:01:18;;;;;;;18.52;16.63;;;19.00;99.90;;;;;;2097552;28;20393;-69
2021/09/16 00:02:18;;;;;;;18.33;16.42;;;19.00;99.90;;;;;;2096736;28;20156;-69
2021/09/16 00:03:19;;;;;;;17.90;16.00;;;19.00;99.90;;;;;;2096928;28;20397;-69
2021/09/16 00:04:20;;;;;;;18.08;16.25;;;19.00;99.90;;;;;;2097496;28;20486;-69
2021/09/16 00:05:20;;;;;;;17.65;15.75;;;19.00;99.90;;;;;;2096802;28;20036;-69
2021/09/16 00:06:21;;;;;;;18.25;16.40;;;19.00;99.90;;;;;;2097211;28;20115;-68
2021/09/16 00:07:21;;;;;;;17.80;16.00;;;19.00;99.90;;;;;;2097541;28;20115;-69
2021/09/16 00:08:22;;;;;;;17.70;15.90;;;19.00;99.90;;;;;;2097021;28;20025;-69
2021/09/16 00:09:23;;;;;;;17.83;16.02;;;19.00;99.90;;;;;;2088875;28;20032;-69
2021/09/16 00:10:23;;;;;;;18.00;16.10;;;19.00;99.90;;;;;;2097333;28;20025;-69
2021/09/16 00:11:24;;;;;;;18.17;16.27;;;19.00;99.90;;;;;;2098134;28;20787;-69
2021/09/16 00:12:25;;;;;;;17.38;15.63;;;19.00;99.90;;;;;;2097237;28;20033;-69
2021/09/16 00:13:26;;;;;;;17.65;15.85;;;19.00;99.90;;;;;;2097340;28;20025;-69
2021/09/16 00:14:26;;;;;;;16.95;15.27;;;19.00;99.90;;;;;;2097509;28;20036;-69
2021/09/16 00:15:27;;;;;;;17.17;15.48;;;19.00;99.90;;;;;;2088593;28;20028;-70
2021/09/16 00:16:28;;;;;;;17.52;15.73;;;19.00;99.90;;;;;;2097008;28;20028;-70
2021/09/16 00:17:28;;;;;;;17.27;15.57;;;19.00;99.90;;;;;;2096662;28;20095;-70
2021/09/16 00:18:29;;;;;;;17.58;15.85;;;19.00;99.90;;;;;;2088442;28;20031;-70
2021/09/16 00:19:30;;;;;;;17.17;15.48;;;19.00;99.90;;;;;;2087848;28;20025;-70
2021/09/16 00:20:31;;;;;;;17.70;15.80;;;19.00;99.90;;;;;;2096690;28;20764;-70
2021/09/16 00:21:31;;;;;;;17.85;16.00;;;19.00;99.90;;;;;;2096699;28;20094;-69
2021/09/16 00:22:32;;;;;;;17.10;15.40;;;19.00;99.90;;;;;;2096948;28;20500;-70
2021/09/16 00:23:33;;;;;;;16.50;14.90;;;19.00;99.90;;;;;;2105447;28;20160;-70
2021/09/16 00:24:33;;;;;;;17.10;15.40;;;19.00;99.90;;;;;;2096099;28;20020;-70
2021/09/16 00:25:34;;;;;;;16.92;15.23;;;18.90;99.90;;;;;;2096852;28;20036;-69
2021/09/16 00:26:35;;;;;;;17.25;15.48;;;19.00;99.90;;;;;;2097386;28;20067;-70
2021/09/16 00:27:35;;;;;;;16.40;14.82;;;19.00;99.90;;;;;;2097357;28;20035;-70
2021/09/16 00:28:36;;;;;;;16.73;15.13;;;18.90;99.90;;;;;;2097151;28;20515;-70
2021/09/16 00:29:36;;;;;;;16.45;14.85;;;18.90;99.90;;;;;;2097280;28;20032;-70
2021/09/16 00:30:37;;;;;;;16.40;14.90;;;18.90;99.90;;;;;;2097163;28;20035;-70
2021/09/16 00:31:38;;;;;;;16.88;15.07;;;18.90;99.90;;;;;;2096689;28;20094;-70
2021/09/16 00:32:39;;;;;;;16.48;14.77;;;18.90;99.90;;;;;;2088333;28;20112;-70
2021/09/16 00:33:40;;;;;;;17.23;15.45;;;18.90;99.90;;;;;;2088508;28;20123;-70
2021/09/16 00:34:41;;;;;;;16.83;15.02;;;18.90;99.90;;;;;;2095839;28;20032;-70
2021/09/16 00:35:41;;;;;;;17.17;15.27;;;19.00;99.90;;;;;;2096676;28;20032;-69
2021/09/16 00:36:42;;;;;;;16.45;14.85;;;19.00;99.90;;;;;;2079991;28;20040;-69
2021/09/16 00:37:43;;;;;;;16.58;14.88;;;19.00;99.90;;;;;;2088520;28;20029;-70
2021/09/16 00:38:43;;;;;;;15.90;14.23;;;19.00;99.90;;;;;;2097314;28;20501;-69
2021/09/16 00:39:44;;;;;;;16.45;14.75;;;19.00;99.90;;;;;;2097228;28;20036;-68
2021/09/16 00:40:44;;;;;;;16.60;14.98;;;19.00;99.90;;;;;;2097058;28;20062;-69
2021/09/16 00:41:45;;;;;;;16.20;14.60;;;19.00;99.90;;;;;;2088153;28;20032;-70
2021/09/16 00:42:46;;;;;;;16.40;14.80;;;18.90;99.90;;;;;;2087885;28;20544;-69
2021/09/16 00:43:46;;;;;;;16.35;14.75;;;19.00;99.90;;;;;;2079746;28;20727;-72
2021/09/16 00:44:47;;;;;;;16.05;14.45;;;19.00;99.90;;;;;;2087613;28;20104;-69
2021/09/16 00:45:48;;;;;;;16.40;14.80;;;19.00;99.90;;;;;;2096562;28;20063;-69
2021/09/16 00:46:49;;;;;;;16.20;14.60;;;19.00;99.90;;;;;;2088332;28;20032;-68
2021/09/16 00:47:51;;;;;;;16.42;14.77;;;19.00;99.90;;;;;;2088314;28;20124;-69
2021/09/16 00:48:52;;;;;;;16.20;14.55;;;19.00;99.90;;;;;;2088400;28;20444;-69
2021/09/16 00:49:52;;;;;;;17.33;15.50;;;19.00;99.90;;;;;;2088097;28;20025;-68
2021/09/16 00:50:53;;;;;;;16.08;14.27;;;19.00;99.90;;;;;;2096458;28;20063;-68
2021/09/16 00:51:55;;;;;;;16.20;14.60;;;19.00;99.90;;;;;;2096423;28;20521;-69
2021/09/16 00:52:59;;;;;;;15.57;14.05;;;19.00;99.90;;;;;;2104894;28;20500;-68
2021/09/16 00:54:01;;;;;;;15.65;14.15;;;19.00;99.90;;;;;;2096666;28;20478;-68
2021/09/16 00:55:03;;;;;;;15.48;13.88;;;19.00;99.90;;;;;;2095858;28;20163;-69
2021/09/16 00:56:06;;;;;;;16.63;14.93;;;19.00;99.90;;;;;;2096536;28;20031;-70
2021/09/16 00:57:06;;;;;;;16.55;14.85;;;19.00;99.90;;;;;;2096513;28;20024;-69
2021/09/16 00:58:08;;;;;;;16.48;14.77;;;19.00;99.90;;;;;;2096386;28;20532;-69
2021/09/16 00:59:10;;;;;;;15.55;13.95;;;19.00;99.90;;;;;;2096445;28;20060;-69
2021/09/16 01:00:11;;;;;;;15.77;14.18;;;19.00;99.90;;;;;;2097039;28;20502;-69
2021/09/16 01:01:12;;;;;;;16.00;14.40;;;19.00;99.90;;;;;;2097099;28;20048;-69
2021/09/16 01:02:12;;;;;;;15.55;13.98;;;19.00;99.90;;;;;;2088050;28;20107;-69
2021/09/16 01:03:13;;;;;;;16.02;14.43;;;19.00;99.90;;;;;;2080030;28;20029;-69
2021/09/16 01:04:14;;;;;;;16.23;14.63;;;19.00;99.90;;;;;;2096600;28;20402;-69
2021/09/16 01:05:15;;;;;;;15.45;13.95;;;19.00;99.90;;;;;;2095861;28;20029;-70
2021/09/16 01:06:17;;;;;;;15.18;13.77;;;19.10;99.90;;;;;;2096875;28;20078;-70
2021/09/16 01:07:18;;;;;;;15.98;14.38;;;19.10;99.90;;;;;;2097316;28;20051;-70
2021/09/16 01:08:19;;;;;;;15.77;13.90;;;19.10;99.90;;;;;;2097595;28;20024;-70
2021/09/16 01:09:20;;;;;;;15.38;13.90;;;19.00;99.90;;;;;;2097481;28;20063;-70
2021/09/16 01:10:21;;;;;;;15.52;13.98;;;19.00;99.90;;;;;;2097406;28;20017;-70
2021/09/16 01:11:21;;;;;;;15.15;13.68;;;19.10;99.90;;;;;;2096919;28;20037;-70
2021/09/16 01:12:22;;;;;;;15.77;14.18;;;19.10;99.90;;;;;;2097000;28;20035;-70
2021/09/16 01:13:23;;;;;;;15.40;13.80;;;19.10;99.90;;;;;;2096422;28;20016;-70
2021/09/16 01:14:25;;;;;;;15.43;13.82;;;19.10;99.90;;;;;;2088134;28;20063;-70
2021/09/16 01:15:25;;;;;;;14.48;12.93;;;19.10;99.90;;;;;;2087591;28;20367;-70
2021/09/16 01:16:26;;;;;;;14.52;13.13;;;19.10;99.90;;;;;;2088090;28;20076;-70
2021/09/16 01:17:26;;;;;;;14.52;13.10;;;19.10;99.90;;;;;;2096535;28;20050;-69
2021/09/16 01:18:27;;;;;;;14.82;13.27;;;19.10;99.90;;;;;;2096290;28;20056;-69
2021/09/16 01:19:28;;;;;;;14.32;12.88;;;19.10;99.90;;;;;;2096147;28;20107;-69
2021/09/16 01:20:29;;;;;;;14.38;12.98;;;19.10;99.90;;;;;;2088144;28;20033;-70
2021/09/16 01:21:29;;;;;;;15.20;13.60;;;19.10;99.90;;;;;;2087957;28;20145;-69
2021/09/16 01:22:35;;;;;;;14.82;13.32;;;19.10;99.90;;;;;;2088023;28;20037;-69
2021/09/16 01:23:35;;;;;;;14.00;12.65;;;19.10;99.90;;;;;;2096454;28;20024;-69
2021/09/16 01:24:36;;;;;;;14.05;12.65;;;19.10;99.90;;;;;;2096766;28;20036;-69
2021/09/16 01:25:37;;;;;;;13.93;12.52;;;19.10;99.90;;;;;;2096630;28;20056;-69
2021/09/16 01:26:40;;;;;;;14.13;12.80;;;19.10;99.90;;;;;;2096394;28;20028;-69
2021/09/16 01:27:41;;;;;;;14.68;13.18;;;19.10;99.90;;;;;;2096477;28;20025;-69
2021/09/16 01:28:42;;;;;;;14.95;13.38;;;19.10;99.90;;;;;;2096471;28;20040;-69
2021/09/16 01:29:43;;;;;;;13.95;12.55;;;19.10;99.90;;;;;;2088116;28;20033;-69
2021/09/16 01:30:45;;;;;;;14.82;13.32;;;19.10;99.90;;;;;;2097034;28;20098;-70
2021/09/16 01:31:48;;;;;;;14.70;13.20;;;19.10;99.90;;;;;;2097734;28;20035;-69
2021/09/16 01:32:51;;;;;;;15.60;13.88;;;19.10;99.90;;;;;;2098495;28;20025;-69
2021/09/16 01:33:51;;;;;;;15.70;14.05;;;19.10;99.90;;;;;;2098623;28;20493;-70
2021/09/16 01:34:52;;;;;;;16.58;14.10;;;19.20;99.90;;;;;;2097707;28;20025;-69
2021/09/16 01:35:53;;;;;;;14.23;12.70;;;19.20;99.90;;;;;;2094632;28;20759;-69
2021/09/16 01:36:53;;;;;;;14.65;12.55;;;19.20;99.90;;;;;;2098822;28;20024;-69
2021/09/16 01:37:55;;;;;;;13.95;12.55;;;19.20;99.90;;;;;;2099242;28;20020;-69
2021/09/16 01:38:56;;;;;;;13.68;12.27;;;19.20;99.90;;;;;;2098810;28;20024;-69
2021/09/16 01:39:57;;;;;;;13.27;11.98;;;19.20;99.90;;;;;;2099291;28;20568;-69
2021/09/16 01:40:57;;;;;;;12.88;11.55;;;19.20;99.90;;;;;;2098734;28;20103;-70
2021/09/16 01:41:58;;;;;;;12.38;11.07;;;19.20;99.90;;;;;;2097733;28;20517;-70
2021/09/16 01:42:59;;;;;;;12.45;11.25;;;19.20;99.90;;;;;;2081136;28;20121;-69
2021/09/16 01:43:59;;;;;;;15.25;12.13;;;19.20;99.90;;;;;;2089572;28;20135;-69
2021/09/16 01:45:00;;;;;;;12.93;11.40;;;19.20;99.90;;;;;;2097116;28;20946;-69
2021/09/16 01:46:01;;;;;;;12.82;11.48;;;19.30;99.90;;;;;;2090034;28;20540;-69
2021/09/16 01:47:04;;;;;;;12.43;11.13;;;19.30;99.90;;;;;;2090306;28;20033;-69
2021/09/16 01:48:05;;;;;;;11.70;10.45;;;19.30;99.90;;;;;;2098354;28;20111;-69
2021/09/16 01:49:06;;;;;;;11.32;10.20;;;19.30;99.90;;;;;;2098019;28;20485;-69
2021/09/16 01:50:07;;;;;;;11.23;10.13;;;19.30;99.90;;;;;;2097003;28;20112;-69
2021/09/16 01:51:07;;;;;;;11.07;9.98;;;19.30;99.90;;;;;;2088819;28;20190;-69
2021/09/16 01:52:08;;;;;;;11.73;10.52;;;19.30;99.90;;;;;;2087108;28;20029;-69
2021/09/16 01:53:09;;;;;;;10.43;9.43;;;19.30;99.90;;;;;;2096600;28;20017;-70
2021/09/16 01:54:10;;;;;;;11.52;10.13;;;19.30;99.90;;;;;;2096262;28;20033;-69
2021/09/16 01:55:11;;;;;;;10.88;9.77;;;19.30;99.90;;;;;;2096599;28;20115;-70
2021/09/16 01:56:12;;;;;;;12.45;9.85;;;19.30;99.90;;;;;;2097645;28;20508;-69
2021/09/16 01:57:12;;;;;;;10.20;9.20;;;19.30;99.90;;;;;;2098553;28;20047;-69
2021/09/16 01:58:13;;;;;;;10.70;9.60;;;19.30;99.90;;;;;;2098485;28;20032;-70
2021/09/16 01:59:13;;;;;;;10.98;9.68;;;19.30;99.90;;;;;;2097812;28;20028;-70
2021/09/16 02:00:14;;;;;;;10.90;9.75;;;19.30;99.90;;;;;;2097809;28;20513;-68
2021/09/16 02:01:15;;;;;;;13.05;10.32;;;19.30;99.90;;;;;;2097594;28;20094;-71
2021/09/16 02:02:16;;;;;;;11.18;9.98;;;19.30;99.90;;;;;;2097606;28;20452;-70
2021/09/16 02:03:16;;;;;;;11.73;10.45;;;19.30;99.90;;;;;;2097916;28;20036;-68
2021/09/16 02:04:17;;;;;;;11.63;10.20;;;19.30;99.90;;;;;;2098316;28;20082;-70
2021/09/16 02:05:17;;;;;;;10.60;9.55;;;19.30;99.90;;;;;;2097581;28;20028;-70
2021/09/16 02:06:20;;;;;;;11.23;10.13;;;19.30;99.90;;;;;;2098185;28;20024;-70
2021/09/16 02:07:20;;;;;;;10.90;9.80;;;19.30;99.90;;;;;;2098389;28;20040;-70
2021/09/16 02:08:21;;;;;;;10.88;9.77;;;19.30;99.90;;;;;;2098337;28;20021;-68
2021/09/16 02:09:22;;;;;;;10.90;9.80;;;19.30;99.90;;;;;;2097747;28;20028;-68
2021/09/16 02:10:22;;;;;;;10.57;9.48;;;19.30;99.90;;;;;;2088809;28;20075;-69
2021/09/16 02:11:23;;;;;;;11.13;10.00;;;19.30;99.90;;;;;;2097395;28;20363;-69
2021/09/16 02:12:23;;;;;;;11.23;10.05;;;19.30;99.90;;;;;;2098188;28;20775;-70
2021/09/16 02:13:25;;;;;;;10.68;9.57;;;19.30;99.90;;;;;;2097566;28;20066;-69
2021/09/16 02:14:26;;;;;;;10.43;9.43;;;19.30;99.90;;;;;;2089465;28;20029;-69
2021/09/16 02:15:26;;;;;;;10.60;9.50;;;19.30;99.90;;;;;;2096975;28;20043;-69
2021/09/16 02:16:27;;;;;;;10.18;9.18;;;19.30;99.90;;;;;;2097554;28;20539;-69
2021/09/16 02:17:28;;;;;;;9.95;8.95;;;19.30;99.90;;;;;;2097279;28;20025;-69
2021/09/16 02:18:28;;;;;;;9.80;8.80;;;19.30;99.90;;;;;;2097712;28;20051;-69
2021/09/16 02:19:29;;;;;;;9.73;8.73;;;19.30;99.90;;;;;;2097544;28;20029;-70
2021/09/16 02:20:30;;;;;;;9.30;8.40;;;19.30;99.90;;;;;;2097602;28;20390;-69
2021/09/16 02:21:31;;;;;;;10.52;8.98;;;19.30;99.90;;;;;;2089020;28;20036;-69
2021/09/16 02:22:32;;;;;;;9.63;8.70;;;19.30;99.90;;;;;;2097506;28;20033;-69
2021/09/16 02:23:32;;;;;;;9.48;8.43;;;19.30;99.90;;;;;;2097766;28;20459;-69
2021/09/16 02:24:33;;;;;;;9.38;8.48;;;19.30;99.90;;;;;;2089004;28;20040;-69
2021/09/16 02:25:33;;;;;;;9.20;8.18;;;19.30;99.90;;;;;;2097043;28;20139;-69
2021/09/16 02:26:34;;;;;;;9.20;8.32;;;19.30;99.90;;;;;;2106045;28;20058;-69
2021/09/16 02:27:35;;;;;;;9.57;8.57;;;19.40;99.90;;;;;;2098501;28;20343;-69
2021/09/16 02:28:35;;;;;;;9.55;8.65;;;19.30;99.90;;;;;;2098484;28;20032;-69
2021/09/16 02:29:36;;;;;;;9.77;8.75;;;19.30;99.90;;;;;;2097909;28;20036;-69
2021/09/16 02:30:36;;;;;;;9.80;8.80;;;19.30;99.90;;;;;;2089659;28;20523;-69
2021/09/16 02:31:37;;;;;;;9.50;8.48;;;19.30;99.90;;;;;;2089667;28;20382;-69
2021/09/16 02:32:38;;;;;;;11.55;10.35;;;19.30;99.90;;;;;;2097494;28;20032;-69
2021/09/16 02:33:39;;;;;;;12.02;9.77;;;19.30;99.90;;;;;;2098039;28;20040;-69
2021/09/16 02:34:39;;;;;;;11.43;9.90;;;19.30;99.90;;;;;;2098188;28;20021;-70
2021/09/16 02:35:40;;;;;;;10.45;9.07;;;19.30;99.90;;;;;;2097846;28;20043;-69
2021/09/16 02:36:41;;;;;;;11.45;9.55;;;19.30;99.90;;;;;;2097565;28;20025;-69
2021/09/16 02:37:42;;;;;;;11.82;9.63;;;19.30;99.90;;;;;;2097834;28;20017;-69
2021/09/16 02:38:43;;;;;;;14.43;10.52;;;19.30;99.90;;;;;;2098348;28;20036;-70
2021/09/16 02:39:43;;;;;;;12.77;9.90;;;19.30;99.90;;;;;;2098241;28;20025;-69
2021/09/16 02:40:44;;;;;;;10.82;9.73;;;19.30;99.90;;;;;;2097695;28;20243;-70
2021/09/16 02:41:44;;;;;;;12.60;9.60;;;19.30;99.90;;;;;;2097376;28;20032;-69
2021/09/16 02:42:45;;;;;;;12.43;8.88;;;19.30;99.90;;;;;;2096796;28;20033;-70
2021/09/16 02:43:46;;;;;;;9.00;7.55;;;19.30;99.90;;;;;;2097872;28;20032;-69
2021/09/16 02:44:46;;;;;;;9.30;7.40;;;19.20;99.90;;;;;;2097685;28;20033;-70
2021/09/16 02:45:47;;;;;;;7.78;6.97;;;19.20;99.90;;;;;;2099013;28;20037;-70
2021/09/16 02:46:48;;;;;;;9.23;7.90;;;19.20;99.90;;;;;;2099157;28;20064;-69
2021/09/16 02:47:48;;;;;;;14.48;8.85;;;19.10;99.90;;;;;;2090242;28;20187;-69
2021/09/16 02:48:49;;;;;;;14.30;8.88;;;19.00;99.90;;;;;;2098156;28;20032;-69
2021/09/16 02:49:50;;;;;;;11.75;8.85;;;18.90;99.90;;;;;;2098101;28;20437;-70
2021/09/16 02:50:50;;;;;;;10.63;8.50;;;18.90;99.90;;;;;;2090828;28;20079;-70
2021/09/16 02:51:51;;;;;;;11.77;8.68;;;18.70;99.90;;;;;;2081785;28;20038;-71
2021/09/16 02:52:51;;;;;;;10.23;8.45;;;18.60;99.90;;;;;;2098259;28;20129;-71
2021/09/16 02:53:52;;;;;;;10.43;8.98;;;18.60;99.90;;;;;;2099409;28;20035;-72
2021/09/16 02:54:53;;;;;;;10.57;9.02;;;18.50;99.90;;;;;;2098483;28;20115;-71
2021/09/16 02:55:53;;;;;;;11.32;8.73;;;18.50;99.90;;;;;;2098621;28;20098;-70
2021/09/16 02:56:54;;;;;;;11.75;9.18;;;18.40;99.90;;;;;;2098549;28;20531;-70
2021/09/16 02:57:54;;;;;;;10.20;9.20;;;18.30;99.90;;;;;;2099020;28;20056;-70
2021/09/16 02:58:55;;;;;;;11.50;9.90;;;18.30;99.90;;;;;;2098955;28;20028;-70
2021/09/16 02:59:56;;;;;;;10.57;9.18;;;18.30;99.90;;;;;;2098589;28;20032;-70
2021/09/16 03:00:56;;;;;;;12.63;10.27;;;18.20;99.90;;;;;;2098113;28;20118;-69
2021/09/16 03:01:57;;;;;;;10.52;9.40;;;18.20;99.90;;;;;;2099067;28;20745;-71
2021/09/16 03:02:58;;;;;;;10.90;9.35;;;18.20;99.90;;;;;;2100173;28;20039;-70
2021/09/16 03:03:58;;;;;;;10.65;9.50;;;18.10;99.90;;;;;;2100245;28;20033;-71
2021/09/16 03:04:59;;;;;;;10.38;9.27;;;18.10;99.90;;;;;;2099396;28;20032;-70
2021/09/16 03:06:00;;;;;;;10.18;9.07;;;18.10;99.90;;;;;;2100742;28;20039;-72
2021/09/16 03:07:00;;;;;;;10.57;9.48;;;18.10;99.90;;;;;;2099031;28;20040;-70
2021/09/16 03:08:01;;;;;;;10.15;9.13;;;18.10;99.90;;;;;;2098210;28;20032;-70
2021/09/16 03:09:02;;;;;;;10.10;9.10;;;18.00;99.90;;;;;;2097182;28;20079;-71
2021/09/16 03:10:05;;;;;;;10.18;9.18;;;18.00;99.90;;;;;;2097565;28;20077;-70
2021/09/16 03:11:05;;;;;;;10.40;9.35;;;18.10;99.90;;;;;;2097406;28;20028;-70
2021/09/16 03:12:06;;;;;;;10.30;9.20;;;18.00;99.90;;;;;;2097140;28;20111;-71
2021/09/16 03:13:07;;;;;;;10.90;9.73;;;18.00;99.90;;;;;;2097431;28;20131;-70
2021/09/16 03:14:07;;;;;;;13.05;10.25;;;18.00;99.90;;;;;;2098052;28;20021;-70
2021/09/16 03:15:09;;;;;;;11.70;10.40;;;18.00;99.90;;;;;;2096727;28;20024;-72
2021/09/16 03:16:10;;;;;;;10.80;9.68;;;18.00;99.90;;;;;;2097540;28;20055;-72
2021/09/16 03:17:10;;;;;;;11.15;10.05;;;18.00;99.90;;;;;;2098011;28;20031;-72
2021/09/16 03:18:11;;;;;;;11.32;9.90;;;18.00;99.90;;;;;;2097985;28;20448;-72
2021/09/16 03:19:11;;;;;;;11.77;10.52;;;18.00;99.90;;;;;;2097319;28;20756;-72
2021/09/16 03:20:12;;;;;;;13.70;11.88;;;18.00;99.90;;;;;;2097230;28;20086;-72
2021/09/16 03:21:13;;;;;;;14.52;11.50;;;18.00;99.90;;;;;;2097039;28;20027;-72
2021/09/16 03:22:13;;;;;;;12.52;11.20;;;18.00;99.90;;;;;;2097403;28;20036;-72
2021/09/16 03:23:14;;;;;;;12.23;11.02;;;18.00;99.90;;;;;;2097833;28;20296;-72
2021/09/16 03:24:15;;;;;;;12.27;10.98;;;18.00;99.90;;;;;;2098063;28;20020;-72
2021/09/16 03:25:16;;;;;;;12.07;10.75;;;18.00;99.90;;;;;;2096985;28;20024;-72
2021/09/16 03:26:16;;;;;;;11.40;10.30;;;18.00;99.90;;;;;;2097645;28;20108;-72
2021/09/16 03:27:17;;;;;;;12.05;10.80;;;18.00;99.90;;;;;;2097875;28;20021;-72
2021/09/16 03:28:17;;;;;;;11.60;10.40;;;18.00;99.90;;;;;;2097158;28;20044;-72
2021/09/16 03:29:18;;;;;;;14.50;11.88;;;18.00;99.90;;;;;;2097154;28;20025;-73
2021/09/16 03:30:18;;;;;;;13.23;10.88;;;18.00;99.90;;;;;;2105374;28;20036;-73
2021/09/16 03:31:19;;;;;;;12.10;10.88;;;18.10;99.90;;;;;;2105352;28;20043;-73
2021/09/16 03:32:20;;;;;;;12.27;10.57;;;18.10;99.90;;;;;;2096894;28;20067;-73
2021/09/16 03:33:21;;;;;;;16.15;13.38;;;18.10;99.90;;;;;;2097009;28;20031;-73
2021/09/16 03:34:21;;;;;;;14.07;11.98;;;18.10;99.90;;;;;;2097190;28;20033;-73
2021/09/16 03:35:22;;;;;;;12.82;11.52;;;18.10;99.90;;;;;;2096368;28;20569;-73
2021/09/16 03:36:22;;;;;;;12.27;10.95;;;18.10;99.90;;;;;;2097617;28;20055;-73
2021/09/16 03:37:23;;;;;;;12.13;10.77;;;18.00;99.90;;;;;;2097887;28;20056;-73
2021/09/16 03:38:24;;;;;;;13.30;11.10;;;18.00;99.90;;;;;;2097096;28;20027;-73
2021/09/16 03:39:24;;;;;;;12.63;11.20;;;18.00;99.90;;;;;;2080607;28;20029;-73
2021/09/16 03:40:25;;;;;;;12.55;11.23;;;18.10;99.90;;;;;;2088990;28;20174;-73
2021/09/16 03:41:25;;;;;;;13.07;11.68;;;18.10;99.90;;;;;;2088779;28;20025;-73
2021/09/16 03:42:26;;;;;;;12.52;11.23;;;18.10;99.90;;;;;;2096863;28;20028;-73
2021/09/16 03:43:27;;;;;;;13.15;11.60;;;18.10;99.90;;;;;;2097187;28;20842;-72
2021/09/16 03:44:28;;;;;;;12.35;11.02;;;18.00;99.90;;;;;;2088757;28;20068;-72
2021/09/16 03:45:28;;;;;;;14.00;11.93;;;18.00;99.90;;;;;;2096121;28;20051;-73
2021/09/16 03:46:29;;;;;;;13.40;11.73;;;18.00;99.90;;;;;;2097000;28;20035;-73
2021/09/16 03:47:30;;;;;;;13.65;11.05;;;18.10;99.90;;;;;;2096829;28;20028;-73
2021/09/16 03:48:30;;;;;;;12.07;10.77;;;18.10;99.90;;;;;;2097752;28;20081;-72
2021/09/16 03:49:35;;;;;;;11.65;10.35;;;18.00;99.90;;;;;;2097199;28;20067;-73
2021/09/16 03:50:36;;;;;;;14.13;10.55;;;18.00;99.90;;;;;;2097139;28;20116;-73
2021/09/16 03:51:37;;;;;;;11.55;10.20;;;18.00;99.90;;;;;;2096895;28;20035;-73
2021/09/16 03:52:37;;;;;;;12.05;10.30;;;18.00;99.90;;;;;;2097061;28;20545;-73
2021/09/16 03:53:38;;;;;;;12.10;10.10;;;18.00;99.90;;;;;;2097314;28;20033;-73
2021/09/16 03:54:39;;;;;;;10.70;9.60;;;18.00;99.90;;;;;;2097463;28;20490;-73
2021/09/16 03:55:39;;;;;;;11.77;10.13;;;18.00;99.90;;;;;;2097124;28;20017;-73
2021/09/16 03:56:40;;;;;;;11.45;10.25;;;17.90;99.90;;;;;;2097571;28;20040;-72
2021/09/16 03:57:41;;;;;;;11.40;10.15;;;17.90;99.90;;;;;;2096849;28;20032;-72
2021/09/16 03:58:41;;;;;;;12.07;10.63;;;17.90;99.90;;;;;;2096866;28;20025;-72
2021/09/16 03:59:42;;;;;;;11.77;9.98;;;17.90;99.90;;;;;;2097246;28;20501;-72
2021/09/16 04:00:43;;;;;;;11.45;10.25;;;17.90;99.90;;;;;;2097442;28;20024;-72
2021/09/16 04:01:43;;;;;;;13.57;11.43;;;17.90;99.90;;;;;;2096605;28;20481;-72
2021/09/16 04:02:45;;;;;;;11.82;10.63;;;17.90;99.90;;;;;;2096764;28;20033;-72
2021/09/16 04:03:45;;;;;;;11.75;10.55;;;17.90;99.90;;;;;;2096828;28;20444;-72
2021/09/16 04:04:46;;;;;;;12.85;11.15;;;17.90;99.90;;;;;;2096821;28;20036;-71
2021/09/16 04:05:47;;;;;;;12.30;11.02;;;17.90;99.90;;;;;;2087834;28;20055;-73
2021/09/16 04:06:47;;;;;;;14.88;12.05;;;17.90;99.90;;;;;;2096768;28;20451;-73
2021/09/16 04:07:48;;;;;;;13.77;11.90;;;17.90;99.90;;;;;;2097115;28;20039;-73
2021/09/16 04:08:48;;;;;;;12.38;11.07;;;17.90;99.90;;;;;;2097414;28;20087;-73
2021/09/16 04:09:49;;;;;;;12.07;10.57;;;17.90;99.90;;;;;;2097440;28;20087;-73
2021/09/16 04:10:49;;;;;;;12.45;10.95;;;17.90;99.90;;;;;;2097791;28;20032;-73
2021/09/16 04:11:50;;;;;;;13.02;10.52;;;17.90;99.90;;;;;;2098241;28;20036;-74
2021/09/16 04:12:51;;;;;;;11.50;10.30;;;17.80;99.90;;;;;;2098149;28;20036;-71
2021/09/16 04:13:51;;;;;;;11.77;10.57;;;17.80;99.90;;;;;;2097655;28;20500;-73
2021/09/16 04:14:52;;;;;;;11.55;10.35;;;17.80;99.90;;;;;;2096937;28;20397;-73
2021/09/16 04:15:53;;;;;;;12.32;10.90;;;17.80;99.90;;;;;;2097356;28;20511;-73
2021/09/16 04:16:53;;;;;;;14.45;11.32;;;17.80;99.90;;;;;;2097582;28;20134;-72
2021/09/16 04:17:54;;;;;;;13.27;10.85;;;17.80;99.90;;;;;;2105199;28;20808;-71
2021/09/16 04:18:55;;;;;;;13.27;10.32;;;17.80;99.90;;;;;;2106433;28;20488;-71
2021/09/16 04:19:55;;;;;;;13.02;11.25;;;17.80;99.90;;;;;;2097527;28;20129;-71
2021/09/16 04:20:56;;;;;;;12.95;10.88;;;17.80;99.90;;;;;;2097504;28;20071;-72
2021/09/16 04:21:56;;;;;;;15.20;11.40;;;17.80;99.90;;;;;;2097268;28;20059;-72
2021/09/16 04:22:57;;;;;;;15.45;11.73;;;17.80;99.90;;;;;;2096803;28;20040;-73
2021/09/16 04:23:58;;;;;;;16.45;11.70;;;17.80;99.90;;;;;;2096687;28;20068;-73
2021/09/16 04:24:58;;;;;;;15.85;12.13;;;17.80;99.90;;;;;;2095922;28;20103;-73
2021/09/16 04:25:59;;;;;;;13.63;11.70;;;17.80;99.90;;;;;;2088450;28;20036;-73
2021/09/16 04:26:59;;;;;;;13.38;11.52;;;17.80;99.90;;;;;;2088216;28;20643;-73
2021/09/16 04:28:00;;;;;;;15.55;11.50;;;17.80;99.90;;;;;;2096479;28;20099;-73
2021/09/16 04:29:02;;;;;;;13.25;11.07;;;17.80;99.90;;;;;;2097148;28;20146;-73
2021/09/16 04:30:04;;;;;;;13.32;11.57;;;17.70;99.90;;;;;;2096378;28;20471;-73
2021/09/16 04:31:06;;;;;;;13.30;11.25;;;17.70;99.90;;;;;;2088271;28;20079;-73
2021/09/16 04:32:08;;;;;;;12.25;10.73;;;17.70;99.90;;;;;;2096991;28;20745;-72
2021/09/16 04:33:08;;;;;;;11.65;10.07;;;17.70;99.90;;;;;;2105509;28;20086;-73
2021/09/16 04:34:09;;;;;;;12.13;10.43;;;17.70;99.90;;;;;;2105751;28;20066;-72
2021/09/16 04:35:10;;;;;;;11.85;10.05;;;17.70;99.90;;;;;;2097228;28;20052;-72
2021/09/16 04:36:10;;;;;;;13.85;11.75;;;17.70;99.90;;;;;;2097860;28;20028;-70
2021/09/16 04:37:11;;;;;;;16.00;12.20;;;17.70;99.90;;;;;;2097873;28;20056;-69
2021/09/16 04:38:14;;;;;;;15.38;11.70;;;17.70;99.90;;;;;;2097840;28;20028;-72
2021/09/16 04:39:14;;;;;;;15.27;11.70;;;17.70;99.90;;;;;;2097759;28;20048;-69
2021/09/16 04:40:15;;;;;;;15.95;12.02;;;17.70;99.90;;;;;;2097771;28;20389;-70
2021/09/16 04:41:15;;;;;;;12.63;10.88;;;17.70;99.90;;;;;;2096855;28;20063;-70
2021/09/16 04:42:16;;;;;;;14.90;12.35;;;17.70;99.90;;;;;;2096990;28;20024;-70
2021/09/16 04:43:17;;;;;;;15.85;12.00;;;17.70;99.90;;;;;;2097651;28;20035;-69
2021/09/16 04:44:17;;;;;;;14.25;11.23;;;17.70;99.90;;;;;;2097045;28;20051;-69
2021/09/16 04:45:18;;;;;;;15.52;12.10;;;17.70;99.90;;;;;;2096823;28;20491;-72
2021/09/16 04:46:19;;;;;;;13.02;11.07;;;17.80;99.90;;;;;;2105468;28;20507;-71
2021/09/16 04:47:20;;;;;;;14.55;11.73;;;17.70;99.90;;;;;;2105644;28;20016;-70
2021/09/16 04:48:21;;;;;;;13.55;11.18;;;17.70;99.90;;;;;;2097175;28;20055;-70
2021/09/16 04:49:21;;;;;;;14.00;11.50;;;17.80;99.90;;;;;;2097012;28;20604;-69
2021/09/16 04:50:22;;;;;;;14.75;11.40;;;17.70;99.90;;;;;;2096967;28;20104;-73
2021/09/16 04:51:23;;;;;;;14.57;11.85;;;17.80;99.90;;;;;;2097575;28;20017;-70
2021/09/16 04:52:25;;;;;;;13.23;11.57;;;17.70;99.90;;;;;;2097699;28;20104;-69
2021/09/16 04:53:25;;;;;;;14.48;11.52;;;17.70;99.90;;;;;;2097670;28;20028;-70
2021/09/16 04:54:26;;;;;;;15.13;12.10;;;17.70;99.90;;;;;;2097808;28;20017;-70
2021/09/16 04:55:27;;;;;;;14.55;11.93;;;17.70;99.90;;;;;;2097163;28;20042;-70
2021/09/16 04:56:27;;;;;;;13.48;11.68;;;17.70;99.90;;;;;;2097470;28;20063;-71
2021/09/16 04:57:28;;;;;;;13.88;11.25;;;17.70;99.90;;;;;;2097044;28;20023;-69
2021/09/16 04:58:28;;;;;;;13.25;11.40;;;17.70;99.90;;;;;;2097204;28;20401;-71
2021/09/16 04:59:30;;;;;;;14.38;12.07;;;17.80;99.90;;;;;;2096905;28;20043;-72
2021/09/16 05:00:30;;;;;;;18.10;13.27;;;17.80;99.90;;;;;;2096934;28;20584;-72
2021/09/16 05:01:31;;;;;;;16.92;13.07;;;17.80;99.90;;;;;;2097057;28;20071;-70
2021/09/16 05:02:31;;;;;;;15.95;13.07;;;17.80;99.90;;;;;;2097649;28;20048;-70
2021/09/16 05:03:32;;;;;;;16.90;12.90;;;17.80;99.90;;;;;;2097440;28;20405;-71
2021/09/16 05:04:33;;;;;;;18.15;13.88;;;17.80;99.90;;;;;;2096808;28;20128;-71
2021/09/16 05:05:33;;;;;;;19.75;14.13;;;17.80;99.90;;;;;;2095720;28;20047;-71
2021/09/16 05:06:34;;;;;;;19.38;14.52;;;17.80;99.90;;;;;;2096881;28;20132;-75
2021/09/16 05:07:35;;;;;;;18.50;14.13;;;17.80;99.90;;;;;;2096873;28;20131;-72
2021/09/16 05:08:35;;;;;;;18.55;14.50;;;17.80;99.90;;;;;;2097295;28;20035;-72
2021/09/16 05:09:36;;;;;;;18.33;14.43;;;17.80;99.90;;;;;;2097808;28;20028;-72